createdAt,value
2023-01-31T00:04:57.722Z,24.30
2023-01-31T00:07:24.919Z,21.50
2023-01-31T00:09:52.132Z,24.00
2023-01-31T00:12:18.660Z,24.90
2023-01-31T00:14:45.456Z,23.90
2023-01-31T00:17:12.396Z,22.10
2023-01-31T00:19:39.568Z,24.20
2023-01-31T00:22:06.553Z,22.40
2023-01-31T00:24:34.866Z,22.30
2023-01-31T00:27:01.647Z,22.10
2023-01-31T00:29:28.549Z,21.30
2023-01-31T00:31:55.747Z,22.70
2023-01-31T00:34:22.576Z,21.70
2023-01-31T00:36:49.668Z,22.90
2023-01-31T00:39:16.297Z,19.60
2023-01-31T00:41:45.217Z,24.70
2023-01-31T00:44:13.177Z,26.20
2023-01-31T00:46:40.100Z,32.10
2023-01-31T00:49:06.999Z,38.30
2023-01-31T00:51:34.500Z,38.20
2023-01-31T00:54:01.902Z,32.80
2023-01-31T00:56:28.770Z,28.60
2023-01-31T00:58:56.181Z,36.90
2023-01-31T01:01:25.725Z,26.70
2023-01-31T01:03:52.752Z,28.60
2023-01-31T01:06:23.770Z,42.70
2023-01-31T01:16:58.476Z,23.10
2023-01-31T01:19:26.134Z,19.50
2023-01-31T01:21:55.019Z,25.10
2023-01-31T01:24:21.703Z,37.30
2023-01-31T01:26:48.493Z,33.60
2023-01-31T01:29:15.448Z,30.70
2023-01-31T01:31:43.349Z,28.50
2023-01-31T01:34:14.777Z,26.30
2023-01-31T01:36:42.206Z,25.90
2023-01-31T01:39:10.157Z,26.60
2023-01-31T01:41:37.478Z,21.70
2023-01-31T01:44:24.879Z,22.80
2023-01-31T01:46:51.727Z,21.90
2023-01-31T01:49:27.925Z,19.40
2023-01-31T01:51:55.136Z,21.40
2023-01-31T01:54:24.581Z,24.80
2023-01-31T01:56:53.754Z,21.00
2023-01-31T16:04:24.463Z,26.60
2023-01-31T16:06:54.237Z,24.90
2023-01-31T16:09:26.496Z,24.60
2023-01-31T16:11:54.295Z,21.30
2023-01-31T16:14:22.497Z,24.10
2023-01-31T16:16:52.290Z,30.50
2023-01-31T16:19:32.925Z,27.50
2023-01-31T16:21:59.883Z,29.40
2023-01-31T16:24:26.831Z,27.30
2023-01-31T16:27:08.756Z,29.90
2023-01-31T16:29:39.715Z,26.20
2023-01-31T16:32:27.659Z,26.50
2023-01-31T16:35:06.352Z,25.00
2023-01-31T16:37:36.733Z,27.30
2023-01-31T16:40:28.592Z,26.40
2023-01-31T16:43:23.892Z,23.50
2023-01-31T16:45:56.007Z,25.40
2023-01-31T16:48:24.566Z,24.70
2023-01-31T16:50:52.852Z,20.60
2023-01-31T16:53:32.557Z,23.90
2023-01-31T16:56:19.906Z,22.80
2023-01-31T16:58:56.581Z,24.40
2023-01-31T17:01:31.203Z,22.00
2023-01-31T17:04:18.271Z,22.40
2023-01-31T17:06:49.100Z,22.70
2023-01-31T17:09:21.014Z,26.40
2023-01-31T17:11:47.943Z,22.20
2023-01-31T17:14:15.620Z,24.60
2023-01-31T17:16:42.369Z,25.60
2023-01-31T17:19:10.867Z,25.80
2023-01-31T17:21:40.477Z,28.20
2023-01-31T17:24:14.910Z,29.40
2023-01-31T17:26:41.688Z,28.70
2023-01-31T17:29:08.574Z,24.90
2023-01-31T17:31:35.297Z,25.00
2023-01-31T17:34:03.181Z,25.30
2023-01-31T17:36:30.275Z,20.80
2023-01-31T17:38:57.687Z,25.60
2023-01-31T17:41:27.200Z,29.40
2023-01-31T17:43:53.934Z,36.00
2023-01-31T17:46:20.934Z,33.50
2023-01-31T17:48:47.809Z,32.40
2023-01-31T17:51:14.984Z,33.60
2023-01-31T17:53:49.540Z,38.90
2023-01-31T17:56:17.715Z,29.50
2023-01-31T17:58:44.629Z,26.90
2023-01-31T18:01:13.259Z,29.60
2023-01-31T18:03:40.834Z,31.60
2023-01-31T18:06:08.138Z,31.50
2023-01-31T18:08:35.153Z,37.70
2023-01-31T18:11:06.191Z,31.70
2023-01-31T18:13:35.225Z,25.40
2023-01-31T18:16:07.357Z,30.00
2023-01-31T18:18:37.757Z,30.10
2023-01-31T18:21:05.093Z,37.80
2023-01-31T18:23:32.211Z,61.20
2023-01-31T18:25:59.695Z,55.30
2023-01-31T18:28:26.619Z,53.40
2023-01-31T18:30:53.332Z,41.40
2023-01-31T18:33:20.315Z,33.20
2023-01-31T18:35:58.006Z,30.10
2023-01-31T18:38:25.877Z,33.40
2023-01-31T18:40:52.820Z,32.50
2023-01-31T18:43:20.316Z,29.20
2023-01-31T18:45:47.784Z,27.20
2023-01-31T18:48:14.474Z,26.50
2023-01-31T18:50:41.345Z,24.10
2023-01-31T18:53:08.027Z,29.80
2023-01-31T18:55:35.014Z,28.80
2023-01-31T18:58:01.750Z,32.80
2023-01-31T19:00:29.018Z,28.20
2023-01-31T19:02:56.200Z,26.10
2023-01-31T19:05:23.745Z,27.60
2023-01-31T19:07:51.278Z,26.20
2023-01-31T19:10:18.634Z,25.60
2023-01-31T19:12:45.549Z,30.00
2023-01-31T19:15:13.113Z,29.10
2023-01-31T19:17:40.103Z,23.60
2023-01-31T19:20:08.002Z,21.60
2023-01-31T19:22:35.745Z,20.60
2023-01-31T19:25:04.921Z,21.10
2023-01-31T19:27:33.440Z,21.80
2023-01-31T19:30:00.659Z,19.90
2023-01-31T19:32:28.889Z,22.70
2023-01-31T19:34:55.534Z,18.60
